createdAt,value
2024-01-26T00:02:07.945Z,-7.46
2024-01-26T00:04:36.791Z,-7.39
2024-01-26T00:07:07.271Z,-7.43
2024-01-26T00:09:36.178Z,-7.37
2024-01-26T00:12:05.348Z,-7.38
2024-01-26T00:14:34.233Z,-7.41
2024-01-26T00:17:03.810Z,-7.40
2024-01-26T00:19:32.353Z,-7.39
2024-01-26T00:22:01.311Z,-7.51
2024-01-26T00:24:30.182Z,-7.36
2024-01-26T00:26:58.870Z,-7.46
2024-01-26T00:29:27.991Z,-7.34
2024-01-26T00:31:56.531Z,-7.32
2024-01-26T00:34:25.373Z,-7.30
2024-01-26T00:36:54.161Z,-7.30
2024-01-26T00:39:22.925Z,-7.24
2024-01-26T00:41:51.792Z,-7.25
2024-01-26T00:44:20.270Z,-7.33
2024-01-26T00:46:49.092Z,-7.21
2024-01-26T00:49:17.812Z,-7.26
2024-01-26T00:51:46.640Z,-7.26
2024-01-26T00:54:15.459Z,-7.32
2024-01-26T00:56:44.211Z,-7.41
2024-01-26T00:59:13.312Z,-7.16
2024-01-26T01:01:42.217Z,-7.18
2024-01-26T01:04:11.313Z,-7.15
2024-01-26T01:06:40.029Z,-7.10
2024-01-26T01:09:08.928Z,-7.08
2024-01-26T01:11:37.593Z,-7.09
2024-01-26T01:14:06.446Z,-7.17
2024-01-26T01:16:35.984Z,-7.14
2024-01-26T01:19:05.100Z,-7.11
2024-01-26T01:21:33.826Z,-7.26
2024-01-26T01:24:03.247Z,-7.03
2024-01-26T01:26:32.081Z,-7.01
2024-01-26T01:29:00.705Z,-7.02
2024-01-26T01:31:29.591Z,-7.04
2024-01-26T01:33:58.327Z,-7.06
2024-01-26T01:36:27.172Z,-7.31
2024-01-26T01:38:55.949Z,-7.07
2024-01-26T01:41:24.755Z,-7.08
2024-01-26T01:43:57.884Z,-7.08
2024-01-26T01:46:26.648Z,-7.03
2024-01-26T01:48:55.595Z,-6.97
2024-01-26T01:51:25.449Z,-7.00
2024-01-26T01:53:54.970Z,-6.99
2024-01-26T01:56:25.901Z,-7.18
2024-01-26T01:58:55.753Z,-7.00
2024-01-26T02:01:24.900Z,-6.96
2024-01-26T02:03:53.836Z,-6.91
2024-01-26T02:06:22.529Z,-6.90
2024-01-26T02:08:51.102Z,-6.92
2024-01-26T02:11:19.891Z,-6.88
2024-01-26T02:13:48.677Z,-6.93
2024-01-26T02:16:17.324Z,-6.89
2024-01-26T02:18:46.043Z,-6.90
2024-01-26T02:21:14.809Z,-6.84
2024-01-26T02:23:45.480Z,-6.84
2024-01-26T02:26:14.075Z,-6.87
2024-01-26T02:28:42.829Z,-6.83
2024-01-26T02:31:11.654Z,-6.85
2024-01-26T02:33:40.622Z,-6.79
2024-01-26T02:36:10.367Z,-6.78
2024-01-26T02:38:39.243Z,-6.80
2024-01-26T02:41:07.888Z,-6.73
2024-01-26T02:43:36.664Z,-6.74
2024-01-26T02:46:11.918Z,-6.74
2024-01-26T02:48:44.036Z,-6.73
2024-01-26T02:51:12.856Z,-6.69
2024-01-26T02:53:42.632Z,-6.69
2024-01-26T02:56:11.504Z,-6.65
2024-01-26T02:58:40.647Z,-6.66
2024-01-26T03:01:09.407Z,-6.81
2024-01-26T03:03:38.162Z,-6.65
2024-01-26T03:06:08.235Z,-6.60
2024-01-26T03:08:37.123Z,-6.61
2024-01-26T03:11:06.711Z,-6.79
2024-01-26T03:13:35.868Z,-6.57
2024-01-26T03:16:05.028Z,-6.54
2024-01-26T03:18:34.268Z,-6.56
2024-01-26T03:21:03.521Z,-6.52
2024-01-26T03:23:32.713Z,-6.48
2024-01-26T03:26:01.778Z,-6.50
2024-01-26T03:28:31.967Z,-6.68
2024-01-26T03:31:00.516Z,-6.45
2024-01-26T03:33:29.636Z,-6.47
2024-01-26T03:35:58.314Z,-6.54
2024-01-26T03:38:27.368Z,-6.44
2024-01-26T03:40:55.972Z,-6.39
2024-01-26T03:43:24.732Z,-6.33
2024-01-26T03:45:53.548Z,-6.35
2024-01-26T03:48:22.209Z,-6.51
2024-01-26T03:50:50.977Z,-6.26
2024-01-26T03:53:19.429Z,-6.30
2024-01-26T03:55:48.287Z,-6.23
2024-01-26T03:58:16.967Z,-6.27
2024-01-26T04:00:45.628Z,-6.19
2024-01-26T04:03:14.545Z,-6.17
2024-01-26T04:05:43.844Z,-6.16
2024-01-26T04:08:16.166Z,-6.14
2024-01-26T04:10:45.002Z,-6.12
2024-01-26T04:13:13.863Z,-6.10
2024-01-26T04:15:42.369Z,-6.10
2024-01-26T04:18:11.297Z,-5.98
2024-01-26T04:20:40.161Z,-6.00
2024-01-26T04:23:08.983Z,-5.95
2024-01-26T04:25:37.734Z,-5.88
2024-01-26T04:28:07.024Z,-5.93
2024-01-26T04:30:36.762Z,-5.88
2024-01-26T04:33:06.042Z,-5.85
2024-01-26T04:35:34.939Z,-5.81
2024-01-26T04:38:06.958Z,-5.83
2024-01-26T04:40:35.934Z,-5.87
2024-01-26T04:43:04.708Z,-5.84
2024-01-26T04:45:33.762Z,-5.75
2024-01-26T04:48:02.465Z,-5.67
2024-01-26T04:50:31.370Z,-5.70
2024-01-26T04:53:00.078Z,-5.63
2024-01-26T04:55:30.424Z,-5.83
2024-01-26T04:57:59.311Z,-5.65
2024-01-26T05:00:28.065Z,-5.62
2024-01-26T05:02:56.709Z,-5.61
2024-01-26T05:05:25.905Z,-5.60
2024-01-26T05:07:54.783Z,-5.56
2024-01-26T05:10:23.725Z,-5.53
2024-01-26T05:12:52.534Z,-5.44
2024-01-26T05:15:21.130Z,-5.43
2024-01-26T05:17:50.140Z,-5.39
2024-01-26T05:20:18.903Z,-5.46
2024-01-26T05:22:48.049Z,-5.82
2024-01-26T05:25:17.321Z,-5.44
2024-01-26T05:27:46.228Z,-5.39
2024-01-26T05:30:15.109Z,-5.42
2024-01-26T05:32:46.541Z,-5.42
2024-01-26T05:35:15.532Z,-5.44
2024-01-26T05:37:47.807Z,-5.41
2024-01-26T05:40:17.849Z,-5.44
2024-01-26T05:42:46.548Z,-5.46
2024-01-26T05:45:17.828Z,-5.53
2024-01-26T05:47:46.924Z,-5.45
2024-01-26T05:50:17.926Z,-5.40
2024-01-26T05:52:46.786Z,-5.37
2024-01-26T05:55:16.507Z,-5.38
2024-01-26T05:57:45.558Z,-5.35
2024-01-26T06:00:18.197Z,-5.28
2024-01-26T06:02:47.612Z,-5.19
2024-01-26T06:05:16.510Z,-5.10
2024-01-26T06:07:45.184Z,-5.07
2024-01-26T06:10:14.068Z,-5.06
2024-01-26T06:12:42.810Z,-5.07
2024-01-26T06:15:12.189Z,-5.19
2024-01-26T06:17:41.369Z,-5.04
2024-01-26T06:20:10.865Z,-5.11
2024-01-26T06:22:39.646Z,-5.17
2024-01-26T06:25:08.295Z,-5.39
2024-01-26T06:27:37.214Z,-5.25
2024-01-26T06:30:09.070Z,-5.23
2024-01-26T06:32:37.779Z,-5.30
2024-01-26T06:35:07.225Z,-5.33
2024-01-26T06:37:35.930Z,-5.55
2024-01-26T06:40:05.172Z,-5.37
2024-01-26T06:42:34.929Z,-5.46
2024-01-26T06:45:03.612Z,-5.38
2024-01-26T06:47:32.498Z,-5.44
2024-01-26T06:50:01.952Z,-5.49
2024-01-26T06:52:30.688Z,-5.42
2024-01-26T06:54:59.670Z,-5.47
2024-01-26T06:57:28.597Z,-5.70
2024-01-26T06:59:57.439Z,-5.49
2024-01-26T07:02:26.538Z,-5.44
2024-01-26T07:04:55.188Z,-5.35
2024-01-26T07:07:24.189Z,-5.40
2024-01-26T07:09:52.859Z,-5.49
2024-01-26T07:12:21.950Z,-5.56
2024-01-26T07:14:50.488Z,-5.36
2024-01-26T07:17:19.517Z,-5.44
2024-01-26T07:19:48.642Z,-5.62
2024-01-26T07:22:17.427Z,-5.43
2024-01-26T07:24:46.417Z,-5.37
2024-01-26T07:27:15.178Z,-5.44
2024-01-26T07:29:44.297Z,-5.36
2024-01-26T07:32:13.375Z,-5.29
2024-01-26T07:34:42.293Z,-5.28
2024-01-26T07:37:11.316Z,-5.20
2024-01-26T07:39:40.252Z,-5.24
2024-01-26T07:42:09.018Z,-5.27
2024-01-26T07:44:38.162Z,-5.30
2024-01-26T07:47:07.232Z,-5.47
2024-01-26T07:49:36.125Z,-5.18
2024-01-26T07:52:05.413Z,-5.21
2024-01-26T07:54:34.068Z,-5.16
2024-01-26T07:57:04.006Z,-5.07
2024-01-26T07:59:32.665Z,-4.95
2024-01-26T08:02:01.648Z,-4.91
2024-01-26T08:04:30.639Z,-4.90
2024-01-26T08:06:59.726Z,-4.93
2024-01-26T08:09:28.656Z,-4.90
2024-01-26T08:11:57.587Z,-4.92
2024-01-26T08:14:27.299Z,-4.84
2024-01-26T08:16:56.188Z,-4.83
2024-01-26T08:19:26.522Z,-4.86
2024-01-26T08:21:57.672Z,-4.84
2024-01-26T08:24:26.736Z,-4.76
2024-01-26T08:26:55.762Z,-4.79
2024-01-26T08:29:28.088Z,-4.75
2024-01-26T08:31:56.920Z,-4.84
2024-01-26T08:34:26.630Z,-4.79
2024-01-26T08:36:55.576Z,-4.83
2024-01-26T08:39:24.604Z,-4.95
2024-01-26T08:41:53.366Z,-4.92
2024-01-26T08:44:22.265Z,-4.93
2024-01-26T08:46:53.470Z,-5.01
2024-01-26T08:49:22.960Z,-4.97
2024-01-26T08:51:53.261Z,-4.99
2024-01-26T08:54:22.027Z,-4.96
2024-01-26T08:56:50.962Z,-4.91
2024-01-26T08:59:19.866Z,-5.03
2024-01-26T09:01:48.744Z,-5.03
2024-01-26T09:04:18.477Z,-5.00
2024-01-26T09:06:50.081Z,-5.06
2024-01-26T09:09:24.281Z,-5.08
2024-01-26T09:11:53.791Z,-5.10
2024-01-26T09:14:22.803Z,-5.10
2024-01-26T09:16:54.984Z,-5.14
2024-01-26T09:19:24.132Z,-5.18
2024-01-26T09:21:52.994Z,-5.18
2024-01-26T09:24:22.149Z,-5.25
2024-01-26T09:26:51.948Z,-5.19
2024-01-26T09:29:20.908Z,-5.28
2024-01-26T09:31:50.787Z,-5.28
2024-01-26T09:34:19.818Z,-5.32
2024-01-26T09:36:48.586Z,-5.53
2024-01-26T09:39:17.684Z,-5.41
2024-01-26T09:41:46.585Z,-5.40
2024-01-26T09:44:15.568Z,-5.43
2024-01-26T09:46:45.631Z,-5.42
2024-01-26T09:49:14.920Z,-5.44
2024-01-26T09:51:44.025Z,-5.46
2024-01-26T09:54:14.661Z,-5.49
2024-01-26T09:56:44.649Z,-5.53
2024-01-26T09:59:13.641Z,-5.58
2024-01-26T10:01:43.616Z,-5.76
2024-01-26T10:04:12.621Z,-5.63
2024-01-26T10:06:41.978Z,-5.60
2024-01-26T10:09:14.582Z,-5.67
2024-01-26T10:11:43.521Z,-5.78
2024-01-26T10:14:22.625Z,-5.76
2024-01-26T10:17:01.483Z,-5.90
2024-01-26T10:19:31.866Z,-5.90
2024-01-26T10:22:02.175Z,-5.83
2024-01-26T10:24:32.298Z,-5.85
2024-01-26T10:27:01.459Z,-5.88
2024-01-26T10:29:30.306Z,-5.98
2024-01-26T10:31:59.439Z,-6.17
2024-01-26T10:34:30.538Z,-5.97
2024-01-26T10:37:06.521Z,-5.99
2024-01-26T10:39:41.249Z,-6.07
2024-01-26T10:42:10.969Z,-6.09
2024-01-26T10:44:41.059Z,-6.40
2024-01-26T10:47:10.983Z,-6.22
2024-01-26T10:49:41.081Z,-6.28
2024-01-26T10:52:11.958Z,-6.28
2024-01-26T10:54:41.326Z,-6.31
2024-01-26T10:57:10.324Z,-6.30
2024-01-26T10:59:42.740Z,-6.41
2024-01-26T11:02:16.804Z,-6.39
2024-01-26T11:04:46.767Z,-6.62
2024-01-26T11:07:19.565Z,-6.48
2024-01-26T11:09:51.085Z,-6.46
2024-01-26T11:12:25.084Z,-6.53
2024-01-26T11:15:11.697Z,-6.47
2024-01-26T11:17:46.822Z,-6.47
2024-01-26T11:20:36.639Z,-6.49
2024-01-26T11:23:11.847Z,-6.47
2024-01-26T11:25:43.807Z,-6.59
2024-01-26T11:28:18.079Z,-6.64
2024-01-26T11:30:59.704Z,-6.68
2024-01-26T11:33:37.535Z,-6.65
2024-01-26T11:36:08.215Z,-6.64
2024-01-26T11:38:37.422Z,-6.73
2024-01-26T11:41:07.346Z,-6.72
2024-01-26T11:43:48.815Z,-6.75
2024-01-26T11:46:19.054Z,-6.80
2024-01-26T11:48:52.684Z,-6.86
2024-01-26T11:51:22.986Z,-6.90
2024-01-26T11:53:52.193Z,-6.99
2024-01-26T11:56:21.989Z,-6.97
2024-01-26T11:58:51.227Z,-7.08
2024-01-26T12:01:26.031Z,-7.02
2024-01-26T12:03:55.027Z,-7.06
2024-01-26T12:06:23.996Z,-7.20
2024-01-26T12:08:53.244Z,-7.04
2024-01-26T12:11:22.161Z,-7.25
2024-01-26T12:13:51.188Z,-7.13
2024-01-26T12:16:24.922Z,-7.06
2024-01-26T12:18:56.486Z,-7.04
2024-01-26T12:21:30.480Z,-7.11
2024-01-26T12:23:59.143Z,-7.21
2024-01-26T12:26:28.716Z,-7.12
2024-01-26T12:28:57.591Z,-7.18
2024-01-26T12:31:29.116Z,-7.15
2024-01-26T12:33:58.119Z,-7.13
2024-01-26T12:36:33.586Z,-7.07
2024-01-26T12:39:03.423Z,-7.11
2024-01-26T12:41:33.928Z,-7.14
2024-01-26T12:44:03.410Z,-7.07
2024-01-26T12:46:32.040Z,-7.09
2024-01-26T12:49:01.378Z,-7.13
2024-01-26T12:51:30.274Z,-7.09
2024-01-26T12:53:59.236Z,-7.14
2024-01-26T12:56:29.538Z,-7.31
2024-01-26T12:58:58.302Z,-7.18
2024-01-26T13:01:26.880Z,-7.17
2024-01-26T13:03:56.417Z,-7.18
2024-01-26T13:06:25.116Z,-7.20
2024-01-26T13:08:54.130Z,-7.21
2024-01-26T13:11:22.824Z,-7.17
2024-01-26T13:13:51.636Z,-7.14
2024-01-26T13:16:20.183Z,-7.14
2024-01-26T13:18:49.302Z,-7.17
2024-01-26T13:21:19.583Z,-7.37
2024-01-26T13:23:51.660Z,-7.21
2024-01-26T13:26:20.357Z,-7.15
2024-01-26T13:28:49.130Z,-7.39
2024-01-26T13:31:18.626Z,-7.26
2024-01-26T13:33:47.737Z,-7.22
2024-01-26T13:36:17.654Z,-7.29
2024-01-26T13:38:46.563Z,-7.49
2024-01-26T13:41:17.448Z,-7.31
2024-01-26T13:43:50.985Z,-7.82
2024-01-26T13:46:20.064Z,-7.59
2024-01-26T13:48:49.283Z,-7.65
2024-01-26T13:51:18.093Z,-7.73
2024-01-26T13:53:47.131Z,-7.83
2024-01-26T13:56:17.476Z,-7.82
2024-01-26T13:58:46.826Z,-7.93
2024-01-26T14:01:16.975Z,-7.95
2024-01-26T14:03:46.693Z,-7.98
2024-01-26T14:06:15.844Z,-8.02
2024-01-26T14:08:44.683Z,-8.11
2024-01-26T14:11:13.750Z,-8.22
2024-01-26T14:13:42.727Z,-8.18
2024-01-26T14:16:12.530Z,-8.26
2024-01-26T14:18:41.646Z,-8.27
2024-01-26T14:21:10.952Z,-8.29
2024-01-26T14:23:40.573Z,-8.44
2024-01-26T14:26:12.172Z,-8.77
2024-01-26T14:28:41.069Z,-8.43
2024-01-26T14:31:09.829Z,-8.62
2024-01-26T14:33:38.805Z,-8.63
2024-01-26T14:36:07.884Z,-8.82
2024-01-26T14:38:36.811Z,-8.87
2024-01-26T14:41:05.749Z,-9.23
2024-01-26T14:43:35.969Z,-9.13
2024-01-26T14:46:07.492Z,-9.21
2024-01-26T14:48:40.561Z,-9.27
2024-01-26T14:51:12.437Z,-9.28
2024-01-26T14:53:41.085Z,-9.25
2024-01-26T14:56:10.300Z,-9.30
2024-01-26T14:58:39.889Z,-9.34
2024-01-26T15:01:08.613Z,-9.37
2024-01-26T15:03:38.529Z,-9.40
2024-01-26T15:06:07.629Z,-9.51
2024-01-26T15:08:36.477Z,-9.56
2024-01-26T15:11:05.449Z,-9.71
2024-01-26T15:13:35.988Z,-9.82
2024-01-26T15:16:05.732Z,-9.90
2024-01-26T15:18:34.574Z,-9.99
2024-01-26T15:21:03.519Z,-10.12
2024-01-26T15:23:32.454Z,-10.51
2024-01-26T15:26:01.415Z,-10.55
2024-01-26T15:28:30.009Z,-10.55
2024-01-26T15:30:58.804Z,-10.60
2024-01-26T15:33:27.981Z,-10.75
2024-01-26T15:35:58.312Z,-10.94
2024-01-26T15:38:26.873Z,-11.00
2024-01-26T15:40:55.749Z,-11.07
2024-01-26T15:43:24.671Z,-11.25
2024-01-26T15:45:53.416Z,-11.31
2024-01-26T15:48:22.239Z,-11.36
2024-01-26T15:50:53.095Z,-11.52
2024-01-26T15:53:21.752Z,-11.61
2024-01-26T15:55:50.587Z,-11.98
2024-01-26T15:58:18.967Z,-11.98
2024-01-26T16:00:50.825Z,-11.98
2024-01-26T16:03:19.715Z,-12.15
2024-01-26T16:05:51.142Z,-12.12
2024-01-26T16:08:19.945Z,-12.51
2024-01-26T16:10:48.691Z,-12.36
2024-01-26T16:13:17.457Z,-12.55
2024-01-26T16:15:47.059Z,-12.61
2024-01-26T16:18:15.935Z,-12.65
2024-01-26T16:20:44.588Z,-13.08
2024-01-26T16:23:13.384Z,-12.82
2024-01-26T16:25:44.887Z,-12.83
2024-01-26T16:28:13.769Z,-13.24
2024-01-26T16:30:42.598Z,-13.04
2024-01-26T16:33:13.664Z,-13.17
2024-01-26T16:35:42.340Z,-13.20
2024-01-26T16:38:13.129Z,-13.26
2024-01-26T16:40:42.316Z,-13.34
2024-01-26T16:43:12.961Z,-13.64
2024-01-26T16:45:42.105Z,-13.49
2024-01-26T16:48:10.844Z,-13.61
2024-01-26T16:50:39.726Z,-13.63
2024-01-26T16:53:08.499Z,-13.79
2024-01-26T16:55:37.460Z,-13.78
2024-01-26T16:58:06.061Z,-14.08
2024-01-26T17:00:34.860Z,-14.13
2024-01-26T17:03:03.959Z,-13.95
2024-01-26T17:05:35.352Z,-13.92
2024-01-26T17:08:04.815Z,-14.07
2024-01-26T17:10:33.598Z,-14.06
2024-01-26T17:13:05.864Z,-14.16
2024-01-26T17:15:34.552Z,-14.19
2024-01-26T17:18:03.685Z,-14.25
2024-01-26T17:20:32.286Z,-14.21
2024-01-26T17:23:01.340Z,-14.21
2024-01-26T17:25:29.971Z,-14.18
2024-01-26T17:27:58.679Z,-14.32
2024-01-26T17:30:27.563Z,-14.35
2024-01-26T17:33:03.268Z,-14.38
2024-01-26T17:35:32.519Z,-14.45
2024-01-26T17:38:01.107Z,-14.52
2024-01-26T17:40:29.683Z,-14.64
2024-01-26T17:42:58.357Z,-14.55
2024-01-26T17:45:30.438Z,-14.80
2024-01-26T17:47:59.198Z,-14.69
2024-01-26T17:50:27.756Z,-14.78
2024-01-26T17:52:56.551Z,-14.85
2024-01-26T17:55:25.491Z,-14.80
2024-01-26T17:57:54.097Z,-14.79
2024-01-26T18:00:22.735Z,-14.83
2024-01-26T18:02:51.558Z,-14.91
2024-01-26T18:05:23.742Z,-14.97
2024-01-26T18:07:54.536Z,-15.14
2024-01-26T18:10:24.084Z,-15.18
2024-01-26T18:12:52.686Z,-15.12
2024-01-26T18:15:21.533Z,-15.20
2024-01-26T18:17:50.262Z,-15.30
2024-01-26T18:20:19.958Z,-15.35
2024-01-26T18:22:48.860Z,-15.37
2024-01-26T18:25:19.746Z,-15.54
2024-01-26T18:27:48.496Z,-15.44
2024-01-26T18:30:20.062Z,-15.47
2024-01-26T18:32:49.011Z,-15.42
2024-01-26T18:35:17.996Z,-15.54
2024-01-26T18:37:46.836Z,-15.58
2024-01-26T18:40:15.704Z,-15.48
2024-01-26T18:42:44.303Z,-15.55
2024-01-26T18:45:15.601Z,-15.58
2024-01-26T18:47:44.157Z,-15.68
2024-01-26T18:50:12.917Z,-15.66
2024-01-26T18:52:41.857Z,-15.66
2024-01-26T18:55:14.155Z,-15.71
2024-01-26T18:57:44.271Z,-15.76
2024-01-26T19:00:14.313Z,-15.82
2024-01-26T19:02:43.415Z,-15.81
2024-01-26T19:05:14.766Z,-16.02
2024-01-26T19:07:45.497Z,-15.86
2024-01-26T19:10:15.547Z,-15.83
2024-01-26T19:12:45.575Z,-15.85
2024-01-26T19:15:15.823Z,-15.94
2024-01-26T19:17:44.849Z,-15.94
2024-01-26T19:20:15.680Z,-15.93
2024-01-26T19:22:44.415Z,-16.07
2024-01-26T19:25:13.799Z,-16.03
2024-01-26T19:27:43.234Z,-16.02
2024-01-26T19:30:12.348Z,-16.13
2024-01-26T19:32:41.191Z,-16.03
2024-01-26T19:35:10.459Z,-16.10
2024-01-26T19:37:39.711Z,-16.12
2024-01-26T19:40:09.765Z,-16.20
2024-01-26T19:42:38.473Z,-16.19
2024-01-26T19:45:07.994Z,-16.14
2024-01-26T19:47:37.124Z,-16.14
2024-01-26T19:50:09.775Z,-16.20
2024-01-26T19:52:40.368Z,-16.17
2024-01-26T19:55:10.568Z,-16.19
2024-01-26T19:57:41.834Z,-16.17
2024-01-26T20:00:11.679Z,-16.16
2024-01-26T20:02:40.402Z,-16.22
2024-01-26T20:05:11.075Z,-16.22
2024-01-26T20:07:40.464Z,-16.20
2024-01-26T20:10:12.441Z,-16.47
2024-01-26T20:12:41.656Z,-16.23
2024-01-26T20:15:11.684Z,-16.29
2024-01-26T20:17:40.962Z,-16.30
2024-01-26T20:20:11.526Z,-16.34
2024-01-26T20:22:43.211Z,-16.34
2024-01-26T20:25:13.655Z,-16.37
2024-01-26T20:27:42.619Z,-16.30
2024-01-26T20:30:11.676Z,-16.38
2024-01-26T20:32:40.618Z,-16.44
2024-01-26T20:35:10.368Z,-16.43
2024-01-26T20:37:39.280Z,-16.44
2024-01-26T20:40:09.318Z,-16.71
2024-01-26T20:42:38.155Z,-16.52
2024-01-26T20:45:07.450Z,-16.51
2024-01-26T20:47:36.441Z,-16.54
2024-01-26T20:50:08.452Z,-16.58
2024-01-26T20:52:37.498Z,-16.61
2024-01-26T20:55:06.815Z,-16.65
2024-01-26T20:57:35.604Z,-16.65
2024-01-26T21:00:05.743Z,-16.59
2024-01-26T21:02:34.421Z,-16.57
2024-01-26T21:05:03.216Z,-16.59
2024-01-26T21:07:31.873Z,-16.63
2024-01-26T21:10:00.746Z,-16.68
2024-01-26T21:12:29.355Z,-16.62
2024-01-26T21:14:58.271Z,-16.57
2024-01-26T21:17:26.899Z,-16.66
2024-01-26T21:19:55.844Z,-16.69
2024-01-26T21:22:24.417Z,-16.68
2024-01-26T21:24:53.277Z,-16.63
2024-01-26T21:27:21.905Z,-16.67
2024-01-26T21:29:53.566Z,-16.71
2024-01-26T21:32:22.701Z,-16.68
2024-01-26T21:34:52.208Z,-16.90
2024-01-26T21:37:21.257Z,-16.76
2024-01-26T21:39:50.157Z,-16.95
2024-01-26T21:42:19.190Z,-16.74
2024-01-26T21:44:48.307Z,-16.80
2024-01-26T21:47:18.297Z,-16.79
2024-01-26T21:49:47.111Z,-16.83
2024-01-26T21:52:16.478Z,-16.86
2024-01-26T21:54:45.262Z,-16.87
2024-01-26T21:57:14.563Z,-16.86
2024-01-26T21:59:43.340Z,-16.81
2024-01-26T22:02:12.166Z,-16.86
2024-01-26T22:04:40.936Z,-16.84
2024-01-26T22:07:09.699Z,-16.94
2024-01-26T22:09:38.624Z,-16.90
2024-01-26T22:12:07.917Z,-16.92
2024-01-26T22:14:36.762Z,-16.99
2024-01-26T22:17:05.582Z,-16.98
2024-01-26T22:19:34.484Z,-17.02
2024-01-26T22:22:03.917Z,-17.03
2024-01-26T22:24:32.815Z,-17.05
2024-01-26T22:27:01.716Z,-17.25
2024-01-26T22:29:30.594Z,-17.11
2024-01-26T22:31:59.297Z,-17.20
2024-01-26T22:34:28.161Z,-17.12
2024-01-26T22:36:57.096Z,-17.12
2024-01-26T22:39:25.775Z,-17.12
2024-01-26T22:41:55.488Z,-17.13
2024-01-26T22:44:24.513Z,-17.20
2024-01-26T22:46:53.314Z,-17.11
2024-01-26T22:49:22.789Z,-17.18
2024-01-26T22:51:51.980Z,-17.09
2024-01-26T22:54:20.670Z,-17.17
2024-01-26T22:56:52.041Z,-17.13
2024-01-26T22:59:20.771Z,-17.26
2024-01-26T23:01:52.294Z,-17.42
2024-01-26T23:04:21.127Z,-17.19
2024-01-26T23:06:50.991Z,-17.28
2024-01-26T23:09:19.996Z,-17.26
2024-01-26T23:11:48.822Z,-17.26
2024-01-26T23:14:17.795Z,-17.23
2024-01-26T23:16:46.377Z,-17.23
2024-01-26T23:19:20.289Z,-17.26
2024-01-26T23:21:49.457Z,-17.30
2024-01-26T23:24:18.344Z,-17.36
2024-01-26T23:26:47.009Z,-17.36
2024-01-26T23:29:16.035Z,-17.37
2024-01-26T23:31:45.257Z,-17.49
2024-01-26T23:34:15.186Z,-17.54
2024-01-26T23:36:44.088Z,-17.64
2024-01-26T23:39:12.813Z,-17.71
2024-01-26T23:41:41.529Z,-17.85
2024-01-26T23:44:10.273Z,-18.12
2024-01-26T23:46:39.116Z,-17.89
2024-01-26T23:49:08.167Z,-18.01
2024-01-26T23:51:36.854Z,-18.04
2024-01-26T23:54:05.957Z,-18.07
2024-01-26T23:56:34.669Z,-18.06
2024-01-26T23:59:03.654Z,-17.97
